createdAt,value
2022-07-27T00:02:18.014Z,19.5
2022-07-27T00:07:53.051Z,19.5
2022-07-27T00:13:28.168Z,19.5
2022-07-27T00:19:24.986Z,19.5
2022-07-27T00:24:57.554Z,19.5
2022-07-27T00:30:33.262Z,19.4
2022-07-27T00:36:08.157Z,19.4
2022-07-27T00:41:43.311Z,19.4
2022-07-27T00:47:18.014Z,19.4
2022-07-27T00:52:52.666Z,19.4
2022-07-27T00:58:27.752Z,19.4
2022-07-27T01:04:03.728Z,19.4
2022-07-27T01:09:39.419Z,19.4
2022-07-27T01:15:14.747Z,19.4
2022-07-27T01:20:50.055Z,19.3
2022-07-27T01:26:26.800Z,19.3
2022-07-27T01:32:01.611Z,19.3
2022-07-27T01:37:36.357Z,19.3
2022-07-27T01:43:22.778Z,19.3
2022-07-27T01:48:57.653Z,19.3
2022-07-27T01:54:34.197Z,19.3
2022-07-27T02:00:09.248Z,19.3
2022-07-27T02:05:44.058Z,19.2
2022-07-27T02:11:20.627Z,19.2
2022-07-27T02:17:17.114Z,19.2
2022-07-27T02:22:56.384Z,19.2
2022-07-27T02:28:31.100Z,19.2
2022-07-27T02:34:06.003Z,19.2
2022-07-27T02:39:41.112Z,19.2
2022-07-27T02:45:24.570Z,19.2
2022-07-27T02:50:59.156Z,19.2
2022-07-27T02:56:34.220Z,19.1
2022-07-27T03:02:11.536Z,19.1
2022-07-27T03:07:47.206Z,19.1
2022-07-27T03:13:22.213Z,19.1
2022-07-27T03:19:19.044Z,19.1
2022-07-27T03:24:51.834Z,19.1
2022-07-27T03:30:26.571Z,19.1
2022-07-27T03:36:01.444Z,19.1
2022-07-27T03:41:37.212Z,19
2022-07-27T03:47:12.085Z,19
2022-07-27T03:52:46.761Z,19
2022-07-27T03:58:21.540Z,19
2022-07-27T04:03:57.859Z,18.9
2022-07-27T04:09:32.513Z,18.9
2022-07-27T04:15:07.299Z,18.9
2022-07-27T04:20:42.226Z,18.9
2022-07-27T04:26:18.129Z,18.8
2022-07-27T04:31:53.236Z,18.8
2022-07-27T04:37:28.082Z,18.8
2022-07-27T04:43:04.021Z,18.8
2022-07-27T04:48:38.708Z,18.7
2022-07-27T04:54:24.823Z,18.7
2022-07-27T04:59:59.536Z,18.7
2022-07-27T05:05:34.748Z,18.7
2022-07-27T05:11:09.560Z,18.7
2022-07-27T05:17:06.342Z,18.7
2022-07-27T05:22:40.377Z,18.7
2022-07-27T05:28:15.414Z,18.7
2022-07-27T05:33:54.691Z,18.7
2022-07-27T05:39:34.608Z,18.7
2022-07-27T05:45:09.301Z,18.7
2022-07-27T05:50:44.535Z,18.7
2022-07-27T05:56:19.513Z,18.8
2022-07-27T06:01:55.300Z,18.8
2022-07-27T06:07:30.091Z,18.8
2022-07-27T06:13:06.079Z,18.8
2022-07-27T06:19:02.807Z,18.9
2022-07-27T06:24:35.511Z,18.9
2022-07-27T06:30:11.727Z,18.9
2022-07-27T06:35:46.712Z,19.1
2022-07-27T06:41:23.867Z,19
2022-07-27T06:46:59.196Z,19.2
2022-07-27T06:52:35.318Z,19.3
2022-07-27T06:58:10.343Z,19.4
2022-07-27T07:03:46.141Z,19.6
2022-07-27T07:09:21.925Z,19.6
2022-07-27T07:14:56.647Z,19.6
2022-07-27T07:20:35.037Z,19.8
2022-07-27T07:26:09.836Z,20.1
2022-07-27T07:31:53.112Z,20.7
2022-07-27T07:37:31.727Z,20.7
2022-07-27T07:43:09.142Z,20.8
2022-07-27T07:48:43.945Z,21.3
2022-07-27T07:54:20.745Z,21.5
2022-07-27T07:59:55.641Z,21.5
2022-07-27T08:05:30.560Z,21.6
2022-07-27T08:11:07.342Z,21.6
2022-07-27T08:17:04.415Z,21.7
2022-07-27T08:22:38.317Z,22.1
2022-07-27T08:28:18.482Z,22.6
2022-07-27T08:33:56.089Z,23.1
2022-07-27T08:40:06.081Z,23.3
2022-07-27T08:46:25.698Z,22.9
2022-07-27T08:52:04.164Z,22.9
2022-07-27T08:57:39.898Z,23
2022-07-27T09:03:38.988Z,22.9
2022-07-27T09:09:15.255Z,23.1
2022-07-27T09:14:53.374Z,22.9
2022-07-27T09:20:29.214Z,23.4
2022-07-27T09:26:09.238Z,23.8
2022-07-27T09:32:09.905Z,22.8
2022-07-27T09:37:44.861Z,22.1
2022-07-27T09:43:52.621Z,22.1
2022-07-27T09:50:35.319Z,22.2
2022-07-27T09:56:11.265Z,22.2
2022-07-27T10:01:50.031Z,22.1
2022-07-27T10:07:30.751Z,22.1
2022-07-27T10:13:05.687Z,22
2022-07-27T10:19:03.272Z,22.2
2022-07-27T10:24:41.771Z,22.5
2022-07-27T10:30:17.742Z,22.6
2022-07-27T10:36:03.061Z,22.6
2022-07-27T10:41:37.823Z,22.8
2022-07-27T10:47:12.706Z,23
2022-07-27T10:52:47.361Z,23
2022-07-27T10:58:23.249Z,23.3
2022-07-27T11:03:58.244Z,23.7
2022-07-27T11:15:40.825Z,23.9
2022-07-27T11:21:20.424Z,23.7
2022-07-27T11:27:02.018Z,23.8
2022-07-27T11:33:00.151Z,24.3
2022-07-27T11:38:34.903Z,24.2
2022-07-27T11:44:09.916Z,23.8
2022-07-27T11:49:52.791Z,23.7
2022-07-27T11:55:30.057Z,23.8
2022-07-27T12:01:04.886Z,23.7
2022-07-27T12:06:40.623Z,23.4
2022-07-27T12:12:15.454Z,23.5
2022-07-27T12:18:12.209Z,23.4
2022-07-27T12:23:44.910Z,23.4
2022-07-27T12:29:20.585Z,23.4
2022-07-27T12:34:55.430Z,23.4
2022-07-27T12:40:31.226Z,23.5
2022-07-27T12:46:06.287Z,23.7
2022-07-27T12:51:42.336Z,24.1
2022-07-27T12:57:28.682Z,24.5
2022-07-27T13:03:32.247Z,24.6
2022-07-27T13:09:06.987Z,24.7
2022-07-27T13:14:43.360Z,25.1
2022-07-27T13:20:18.585Z,24.9
2022-07-27T13:25:53.538Z,24.7
2022-07-27T13:31:28.288Z,24.6
2022-07-27T13:37:04.425Z,24.7
2022-07-27T13:42:39.339Z,25
2022-07-27T13:48:14.239Z,24.8
2022-07-27T13:53:50.137Z,24.6
2022-07-27T13:59:24.883Z,24.5
2022-07-27T14:05:00.921Z,24.4
2022-07-27T14:10:43.987Z,24.4
2022-07-27T14:16:40.882Z,24.5
2022-07-27T14:22:14.925Z,25.1
2022-07-27T14:27:49.850Z,25.8
2022-07-27T14:33:24.575Z,26.2
2022-07-27T14:39:11.321Z,26.7
2022-07-27T14:44:55.564Z,27
2022-07-27T14:50:30.414Z,27.3
2022-07-27T14:56:06.313Z,27.6
2022-07-27T15:01:42.425Z,27.9
2022-07-27T15:07:20.297Z,28.1
2022-07-27T15:12:56.379Z,28.4
2022-07-27T15:18:53.047Z,28.6
2022-07-27T15:24:25.894Z,28.8
2022-07-27T15:30:02.588Z,29
2022-07-27T15:35:39.314Z,29.2
2022-07-27T15:41:14.145Z,29.3
2022-07-27T15:46:49.683Z,29.5
2022-07-27T15:52:25.395Z,29.6
2022-07-27T15:58:00.541Z,29.7
2022-07-27T16:03:35.467Z,29.9
2022-07-27T16:09:14.953Z,30
2022-07-27T16:14:52.265Z,30.2
2022-07-27T16:20:28.309Z,30.3
2022-07-27T16:26:05.317Z,30.5
2022-07-27T16:31:43.025Z,30.6
2022-07-27T16:37:20.185Z,30.7
2022-07-27T16:42:55.037Z,30.7
2022-07-27T16:48:30.849Z,30.8
2022-07-27T16:54:21.653Z,30.9
2022-07-27T16:59:56.526Z,30.9
2022-07-27T17:05:31.541Z,31
2022-07-27T17:11:06.779Z,30.9
2022-07-27T17:17:07.183Z,30
2022-07-27T17:22:39.910Z,29.4
2022-07-27T17:28:15.703Z,29
2022-07-27T17:33:51.431Z,28.5
2022-07-27T17:39:26.181Z,28.1
2022-07-27T17:45:00.819Z,27.8
2022-07-27T17:50:35.723Z,27.5
2022-07-27T17:56:10.483Z,26.2
2022-07-27T18:01:48.273Z,25.5
2022-07-27T18:07:24.700Z,25
2022-07-27T18:12:59.377Z,24.6
2022-07-27T18:18:55.886Z,24.3
2022-07-27T18:24:28.714Z,24
2022-07-27T18:30:03.306Z,23.8
2022-07-27T18:35:38.119Z,23.6
2022-07-27T18:41:14.215Z,23.4
2022-07-27T18:46:48.998Z,23.2
2022-07-27T18:52:24.010Z,23
2022-07-27T18:57:58.942Z,22.8
2022-07-27T19:03:33.887Z,22.8
2022-07-27T19:09:10.615Z,22.7
2022-07-27T19:14:50.005Z,22.6
2022-07-27T19:20:25.913Z,22.4
2022-07-27T19:26:00.864Z,22.2
2022-07-27T19:31:35.420Z,21.9
2022-07-27T19:37:11.155Z,21.7
2022-07-27T19:42:45.878Z,21.6
2022-07-27T19:48:21.782Z,21.5
2022-07-27T19:53:57.596Z,21.5
2022-07-27T19:59:55.188Z,21.4
2022-07-27T20:05:32.969Z,21.3
2022-07-27T20:11:07.765Z,21
2022-07-27T20:16:42.742Z,20.8
2022-07-27T20:22:19.022Z,20.5
2022-07-27T20:27:53.934Z,20.3
2022-07-27T20:33:32.574Z,20.2
2022-07-27T20:39:12.797Z,20.1
2022-07-27T20:44:55.650Z,19.9
2022-07-27T20:50:30.588Z,19.8
2022-07-27T20:56:06.593Z,19.6
2022-07-27T21:01:41.363Z,19.4
2022-07-27T21:07:17.343Z,19.3
2022-07-27T21:12:53.092Z,19.1
2022-07-27T21:18:49.623Z,19
2022-07-27T21:24:23.281Z,19.1
2022-07-27T21:29:59.379Z,19.9
2022-07-27T21:35:34.046Z,20.2
2022-07-27T21:41:09.061Z,20.3
2022-07-27T21:46:43.864Z,20.4
2022-07-27T21:52:18.719Z,20.5
2022-07-27T21:57:53.550Z,20.5
2022-07-27T22:03:28.408Z,20.5
2022-07-27T22:09:03.641Z,20.5
2022-07-27T22:14:39.050Z,20.5
2022-07-27T22:20:16.317Z,20.5
2022-07-27T22:25:51.246Z,20.5
2022-07-27T22:31:26.146Z,20.5
2022-07-27T22:37:02.224Z,20.4
2022-07-27T22:42:37.073Z,20.4
2022-07-27T22:48:14.070Z,20.4
2022-07-27T22:53:49.174Z,20.4
2022-07-27T22:59:23.831Z,20.4
2022-07-27T23:04:58.648Z,20.3
2022-07-27T23:10:34.712Z,20.3
2022-07-27T23:16:31.449Z,20.3
2022-07-27T23:22:05.868Z,20.2
2022-07-27T23:27:55.539Z,20.2
2022-07-27T23:33:30.653Z,20.2
2022-07-27T23:39:05.364Z,20.2
2022-07-27T23:44:41.132Z,20.1
2022-07-27T23:50:15.807Z,20.1
2022-07-27T23:55:50.914Z,20.1
